Time;durP1;ratioP1;P1;durP2;ratioP2;P2;SDS_P1;SDS_P2;PMS_P1;PMS_P2;Temp;Humidity;BMP_temperature;BMP_pressure;BME280_temperature;BME280_humidity;BME280_pressure;Samples;Min_cycle;Max_cycle;Signal;HPM_P1;HPM_P2
2022/03/01 00:02:15;;;;;;;1.60;1.40;;;5.70;81.30;;;;;;5030241;28;20467;-74
2022/03/01 00:04:42;;;;;;;1.50;1.30;;;5.60;81.50;;;;;;5031507;28;20699;-75
2022/03/01 00:07:10;;;;;;;1.60;1.43;;;5.60;81.70;;;;;;5032041;28;20485;-74
2022/03/01 00:09:38;;;;;;;1.50;1.30;;;5.60;81.70;;;;;;5029532;28;20459;-75
2022/03/01 00:12:05;;;;;;;1.50;1.30;;;5.60;81.60;;;;;;5033602;28;20462;-74
2022/03/01 00:14:32;;;;;;;1.50;1.30;;;5.60;81.50;;;;;;5025809;28;20842;-76
2022/03/01 00:16:59;;;;;;;1.60;1.50;;;5.50;81.40;;;;;;5026691;28;20964;-73
2022/03/01 00:19:27;;;;;;;1.50;1.30;;;5.50;81.50;;;;;;5022781;28;20482;-74
2022/03/01 00:21:54;;;;;;;1.53;1.40;;;5.50;81.40;;;;;;5026976;28;20506;-74
2022/03/01 00:24:22;;;;;;;1.50;1.40;;;5.50;81.40;;;;;;5031236;28;20487;-74
2022/03/01 00:26:49;;;;;;;1.50;1.40;;;5.50;81.40;;;;;;5030883;28;20468;-74
2022/03/01 00:29:16;;;;;;;1.60;1.43;;;5.40;81.50;;;;;;5030126;28;20748;-74
2022/03/01 00:31:43;;;;;;;1.53;1.33;;;5.40;81.60;;;;;;5031157;28;20459;-77
2022/03/01 00:34:09;;;;;;;1.50;1.40;;;5.40;81.90;;;;;;5033232;28;20483;-74
2022/03/01 00:36:36;;;;;;;1.53;1.40;;;5.30;82.10;;;;;;5031532;28;20875;-73
2022/03/01 00:39:04;;;;;;;1.60;1.40;;;5.30;82.10;;;;;;5030835;28;20493;-74
2022/03/01 00:41:32;;;;;;;2.20;2.00;;;5.30;82.20;;;;;;5034366;28;20807;-75
2022/03/01 00:43:59;;;;;;;1.53;1.40;;;5.20;82.30;;;;;;5030837;28;20479;-74
2022/03/01 00:46:26;;;;;;;1.60;1.47;;;5.20;82.60;;;;;;5034244;28;20489;-74
2022/03/01 00:48:53;;;;;;;1.50;1.40;;;5.20;82.70;;;;;;5029508;28;20467;-73
2022/03/01 00:51:20;;;;;;;1.60;1.40;;;5.20;82.70;;;;;;5030686;28;20739;-75
2022/03/01 00:53:47;;;;;;;1.50;1.40;;;5.20;82.80;;;;;;5030086;28;20491;-73
2022/03/01 00:56:14;;;;;;;1.57;1.47;;;5.10;82.90;;;;;;5033497;28;20962;-76
2022/03/01 00:58:42;;;;;;;1.57;1.40;;;5.10;82.90;;;;;;5030012;28;20459;-74
2022/03/01 01:01:09;;;;;;;1.60;1.40;;;5.10;83.20;;;;;;5029908;28;20928;-74
2022/03/01 01:03:36;;;;;;;1.50;1.30;;;5.00;83.50;;;;;;5029923;28;20856;-73
2022/03/01 01:06:03;;;;;;;1.60;1.40;;;5.00;84.30;;;;;;5030819;28;20539;-73
2022/03/01 01:08:30;;;;;;;1.60;1.50;;;4.90;85.20;;;;;;5030576;28;20459;-76
2022/03/01 01:10:57;;;;;;;1.60;1.40;;;4.90;85.80;;;;;;5030008;28;20478;-74
2022/03/01 01:13:24;;;;;;;1.60;1.50;;;4.80;85.30;;;;;;5031826;28;21040;-74
2022/03/01 01:15:52;;;;;;;3.10;2.90;;;4.70;85.70;;;;;;5030740;28;20554;-76
2022/03/01 01:18:19;;;;;;;1.70;1.60;;;4.50;86.60;;;;;;5030202;28;21621;-75
2022/03/01 01:20:46;;;;;;;1.70;1.60;;;4.40;86.90;;;;;;5029408;28;20483;-73
2022/03/01 01:23:13;;;;;;;1.60;1.50;;;4.30;87.10;;;;;;5030777;28;20466;-74
2022/03/01 01:25:40;;;;;;;1.53;1.40;;;4.20;87.40;;;;;;5030355;28;20960;-73
2022/03/01 01:28:06;;;;;;;1.60;1.50;;;4.20;87.40;;;;;;5030879;28;21029;-76
2022/03/01 01:30:35;;;;;;;1.60;1.40;;;4.10;87.80;;;;;;5026554;28;20459;-72
2022/03/01 01:33:03;;;;;;;1.57;1.40;;;4.10;88.30;;;;;;5029630;28;20467;-73
2022/03/01 01:35:32;;;;;;;1.57;1.40;;;4.00;87.80;;;;;;5030054;28;20462;-76
2022/03/01 01:37:59;;;;;;;1.60;1.40;;;4.00;88.20;;;;;;5029656;28;20874;-74
2022/03/01 01:40:28;;;;;;;1.60;1.50;;;3.90;88.40;;;;;;5028294;28;20928;-74
2022/03/01 01:42:56;;;;;;;1.53;1.40;;;3.90;88.80;;;;;;5031080;28;20463;-74
2022/03/01 01:45:24;;;;;;;1.60;1.50;;;3.80;88.90;;;;;;5029513;28;20468;-73
2022/03/01 01:47:53;;;;;;;1.57;1.40;;;3.70;89.00;;;;;;5031453;28;20495;-74
2022/03/01 01:50:22;;;;;;;1.57;1.40;;;3.70;89.10;;;;;;5027189;28;20506;-75
2022/03/01 01:52:50;;;;;;;1.57;1.40;;;3.60;89.20;;;;;;5029965;28;20960;-75
2022/03/01 01:55:19;;;;;;;1.60;1.40;;;3.60;89.00;;;;;;5029610;28;20506;-75
2022/03/01 01:57:46;;;;;;;1.53;1.40;;;3.60;89.10;;;;;;5029963;28;20470;-75
2022/03/01 02:00:15;;;;;;;1.57;1.47;;;3.50;89.30;;;;;;5027724;28;20479;-74
2022/03/01 02:02:44;;;;;;;1.60;1.50;;;3.50;89.40;;;;;;5027326;28;20466;-75
2022/03/01 02:05:12;;;;;;;1.70;1.60;;;3.50;89.10;;;;;;5029528;28;20792;-73
2022/03/01 02:07:49;;;;;;;1.60;1.50;;;3.50;88.80;;;;;;5032546;28;20469;-74
2022/03/01 02:10:16;;;;;;;1.60;1.50;;;3.60;88.80;;;;;;5028752;28;20459;-74
2022/03/01 02:12:44;;;;;;;1.57;1.40;;;3.60;88.40;;;;;;5030610;28;20948;-73
2022/03/01 02:15:12;;;;;;;1.60;1.50;;;3.60;88.40;;;;;;5028179;28;20483;-73
2022/03/01 02:17:40;;;;;;;1.60;1.40;;;3.70;88.20;;;;;;5027937;28;20550;-74
2022/03/01 02:20:11;;;;;;;1.50;1.40;;;3.80;87.80;;;;;;5028563;28;20572;-75
2022/03/01 02:22:38;;;;;;;1.60;1.50;;;3.90;87.00;;;;;;5030462;28;20467;-77
2022/03/01 02:25:06;;;;;;;1.60;1.40;;;4.00;86.40;;;;;;5029143;28;20494;-73
2022/03/01 02:27:33;;;;;;;1.67;1.57;;;4.10;85.90;;;;;;5029936;28;21029;-72
2022/03/01 02:30:00;;;;;;;1.57;1.47;;;4.20;85.60;;;;;;5026502;28;20470;-75
2022/03/01 02:32:27;;;;;;;1.60;1.50;;;4.30;85.40;;;;;;5031475;28;20463;-75
2022/03/01 02:34:53;;;;;;;1.70;1.60;;;4.30;85.20;;;;;;5026163;28;20479;-74
2022/03/01 02:37:22;;;;;;;1.70;1.60;;;4.30;84.90;;;;;;5026793;28;20994;-73
2022/03/01 02:39:49;;;;;;;1.57;1.40;;;4.30;84.90;;;;;;5025197;28;20506;-74
2022/03/01 02:42:15;;;;;;;2.00;1.90;;;4.30;85.00;;;;;;5018514;28;20919;-73
2022/03/01 02:44:42;;;;;;;1.60;1.40;;;4.30;84.90;;;;;;5022922;28;20487;-75
2022/03/01 02:47:09;;;;;;;1.60;1.40;;;4.30;85.00;;;;;;5028461;28;20554;-76
2022/03/01 02:49:36;;;;;;;1.60;1.40;;;4.30;84.90;;;;;;5021838;28;20471;-74
2022/03/01 02:52:03;;;;;;;1.57;1.40;;;4.30;84.80;;;;;;5028071;28;20467;-74
2022/03/01 02:54:32;;;;;;;21.73;4.33;;;4.40;84.80;;;;;;5026173;28;20518;-75
2022/03/01 02:57:01;;;;;;;1.60;1.40;;;4.40;84.80;;;;;;5032323;28;20467;-74
2022/03/01 02:59:28;;;;;;;1.60;1.40;;;4.40;84.70;;;;;;5025486;28;20520;-74
2022/03/01 03:01:55;;;;;;;1.50;1.40;;;4.40;84.60;;;;;;5024520;28;20470;-74
2022/03/01 03:04:22;;;;;;;1.60;1.43;;;4.40;84.60;;;;;;5026399;28;20490;-73
2022/03/01 03:06:49;;;;;;;1.60;1.40;;;4.40;84.50;;;;;;5031281;28;20460;-77
2022/03/01 03:09:16;;;;;;;1.53;1.40;;;4.50;84.20;;;;;;5027459;28;20546;-79
2022/03/01 03:11:45;;;;;;;1.57;1.40;;;4.50;84.10;;;;;;5028635;28;20490;-76
2022/03/01 03:14:11;;;;;;;1.60;1.40;;;4.50;84.10;;;;;;5027776;28;20665;-74
2022/03/01 03:16:38;;;;;;;2.60;2.40;;;4.50;84.20;;;;;;5028853;28;20463;-72
2022/03/01 03:19:05;;;;;;;1.60;1.40;;;4.50;84.20;;;;;;5025646;28;20948;-75
2022/03/01 03:21:32;;;;;;;1.60;1.50;;;4.50;84.10;;;;;;5027289;28;20486;-73
2022/03/01 03:23:59;;;;;;;1.63;1.53;;;4.50;84.00;;;;;;5028133;28;20483;-73
2022/03/01 03:26:26;;;;;;;1.53;1.40;;;4.50;83.90;;;;;;5028432;28;20968;-74
2022/03/01 03:28:54;;;;;;;1.73;1.63;;;4.50;83.90;;;;;;5026773;28;20463;-73
2022/03/01 03:31:21;;;;;;;1.53;1.30;;;4.50;83.70;;;;;;5023804;28;20463;-73
2022/03/01 03:33:47;;;;;;;1.60;1.50;;;4.50;83.70;;;;;;5032608;28;20958;-74
2022/03/01 03:36:14;;;;;;;1.60;1.40;;;4.50;83.80;;;;;;5034658;28;20462;-73
2022/03/01 03:38:41;;;;;;;1.60;1.50;;;4.50;83.80;;;;;;5032273;28;20564;-74
2022/03/01 03:41:08;;;;;;;1.70;1.60;;;4.50;83.70;;;;;;5034100;28;20494;-74
2022/03/01 03:43:34;;;;;;;1.60;1.40;;;4.50;83.60;;;;;;5032584;28;20510;-74
2022/03/01 03:46:03;;;;;;;1.57;1.43;;;4.50;83.60;;;;;;5033238;28;20474;-73
2022/03/01 03:48:30;;;;;;;2.63;2.43;;;4.50;83.60;;;;;;5033439;28;20474;-74
2022/03/01 03:50:57;;;;;;;1.60;1.40;;;4.50;83.50;;;;;;5031360;28;20455;-75
2022/03/01 03:53:23;;;;;;;1.60;1.43;;;4.50;83.50;;;;;;5032392;28;21359;-74
2022/03/01 03:55:50;;;;;;;1.60;1.50;;;4.40;83.60;;;;;;5045840;23;20498;-71
2022/03/01 03:58:17;;;;;;;5.90;5.53;;;4.40;83.60;;;;;;5030084;28;20699;-74
2022/03/01 04:00:44;;;;;;;1.57;1.43;;;4.40;83.60;;;;;;5029484;28;20486;-74
2022/03/01 04:03:12;;;;;;;1.60;1.40;;;4.40;83.70;;;;;;5030161;28;20964;-74
2022/03/01 04:05:40;;;;;;;1.57;1.40;;;4.40;83.80;;;;;;5029662;28;20967;-74
2022/03/01 04:08:07;;;;;;;1.60;1.40;;;4.40;83.80;;;;;;5029347;28;21030;-71
2022/03/01 04:10:34;;;;;;;1.60;1.50;;;4.40;83.70;;;;;;5028729;28;20462;-71
2022/03/01 04:13:01;;;;;;;2.30;2.10;;;4.40;83.70;;;;;;5029650;28;20848;-74
2022/03/01 04:15:28;;;;;;;1.60;1.50;;;4.40;83.70;;;;;;5029995;28;20979;-74
2022/03/01 04:17:54;;;;;;;1.57;1.40;;;4.40;83.70;;;;;;5029283;28;20974;-72
2022/03/01 04:20:23;;;;;;;1.60;1.50;;;4.30;83.90;;;;;;5026947;28;20542;-72
2022/03/01 04:22:50;;;;;;;2.80;2.60;;;4.30;83.90;;;;;;5029833;28;20473;-71
2022/03/01 04:25:17;;;;;;;3.30;3.10;;;4.30;84.20;;;;;;5030008;28;20490;-72
2022/03/01 04:27:43;;;;;;;3.10;2.90;;;4.30;84.20;;;;;;5029521;28;20762;-72
2022/03/01 04:30:12;;;;;;;1.60;1.43;;;4.30;84.20;;;;;;5026357;28;20452;-72
2022/03/01 04:32:39;;;;;;;1.57;1.40;;;4.30;84.30;;;;;;5028940;28;20880;-74
2022/03/01 04:35:08;;;;;;;4.50;4.30;;;4.20;84.40;;;;;;5029577;28;20517;-74
2022/03/01 04:37:36;;;;;;;1.60;1.50;;;4.20;84.50;;;;;;5017460;28;20483;-73
2022/03/01 04:40:04;;;;;;;1.63;1.53;;;4.20;84.70;;;;;;5028333;28;20860;-73
2022/03/01 04:42:31;;;;;;;1.60;1.50;;;4.20;84.70;;;;;;5025381;28;20464;-73
2022/03/01 04:44:58;;;;;;;1.53;1.30;;;4.20;84.90;;;;;;5027763;28;20972;-74
2022/03/01 04:47:24;;;;;;;1.57;1.30;;;4.10;84.90;;;;;;5028784;28;20470;-74
2022/03/01 04:49:51;;;;;;;1.57;1.40;;;4.10;84.90;;;;;;5028178;28;20945;-74
2022/03/01 04:52:18;;;;;;;1.57;1.33;;;4.10;85.20;;;;;;5028395;28;20455;-74
2022/03/01 04:54:46;;;;;;;1.60;1.40;;;4.10;85.30;;;;;;5030191;28;20887;-74
2022/03/01 04:57:13;;;;;;;1.53;1.40;;;4.10;85.40;;;;;;5029308;28;20467;-74
2022/03/01 04:59:40;;;;;;;1.57;1.43;;;4.00;85.60;;;;;;5027468;28;20459;-73
2022/03/01 05:02:07;;;;;;;1.50;1.30;;;4.00;85.50;;;;;;5026538;28;20491;-74
2022/03/01 05:04:33;;;;;;;1.53;1.40;;;4.00;85.70;;;;;;5022178;28;20473;-73
2022/03/01 05:07:00;;;;;;;1.60;1.40;;;4.00;85.70;;;;;;5025714;28;20475;-73
2022/03/01 05:09:27;;;;;;;1.50;1.40;;;3.90;85.80;;;;;;5028211;28;20459;-74
2022/03/01 05:11:55;;;;;;;1.53;1.40;;;3.90;85.90;;;;;;5027890;28;20456;-73
2022/03/01 05:14:22;;;;;;;1.80;1.70;;;3.90;86.00;;;;;;5028190;28;20832;-73
2022/03/01 05:16:49;;;;;;;1.60;1.40;;;3.90;86.10;;;;;;5026946;28;21051;-73
2022/03/01 05:19:16;;;;;;;1.50;1.40;;;3.90;86.20;;;;;;5028490;28;20474;-74
2022/03/01 05:21:43;;;;;;;1.57;1.40;;;3.90;86.30;;;;;;5024026;28;20483;-73
2022/03/01 05:24:11;;;;;;;2.43;2.00;;;3.90;86.30;;;;;;5027780;28;20460;-72
2022/03/01 05:26:38;;;;;;;1.60;1.50;;;3.90;86.30;;;;;;5027866;28;20574;-73
2022/03/01 05:29:07;;;;;;;1.60;1.50;;;3.90;86.20;;;;;;5028772;28;20981;-73
2022/03/01 05:31:34;;;;;;;1.57;1.40;;;3.90;86.20;;;;;;5027081;28;20564;-74
2022/03/01 05:34:01;;;;;;;1.60;1.40;;;3.90;86.20;;;;;;5028649;28;21058;-72
2022/03/01 05:36:28;;;;;;;1.60;1.50;;;3.90;86.10;;;;;;5023114;28;20483;-71
2022/03/01 05:38:55;;;;;;;1.80;1.70;;;3.90;86.20;;;;;;5026261;28;20466;-71
2022/03/01 05:41:24;;;;;;;1.60;1.40;;;3.90;86.30;;;;;;5024577;28;20482;-71
2022/03/01 05:43:51;;;;;;;5.77;4.40;;;3.90;86.30;;;;;;5022002;28;20489;-72
2022/03/01 05:46:20;;;;;;;1.57;1.40;;;3.90;86.20;;;;;;5020422;28;20491;-71
2022/03/01 05:48:47;;;;;;;1.60;1.47;;;3.80;86.10;;;;;;5026367;28;20491;-71
2022/03/01 05:51:15;;;;;;;1.70;1.60;;;3.80;86.00;;;;;;5026780;28;20474;-71
2022/03/01 05:53:42;;;;;;;1.60;1.50;;;3.80;85.90;;;;;;5028399;28;20968;-71
2022/03/01 05:56:09;;;;;;;1.60;1.40;;;3.80;85.80;;;;;;5028405;28;20774;-74
2022/03/01 05:58:36;;;;;;;1.60;1.40;;;3.80;85.80;;;;;;5028956;28;20489;-71
2022/03/01 06:01:03;;;;;;;1.60;1.50;;;3.80;85.70;;;;;;5022829;28;20841;-72
2022/03/01 06:03:31;;;;;;;1.60;1.50;;;3.80;85.80;;;;;;5026955;28;20982;-72
2022/03/01 06:05:58;;;;;;;2.07;1.97;;;3.80;85.90;;;;;;5027041;28;20497;-71
2022/03/01 06:08:24;;;;;;;1.60;1.50;;;3.80;85.90;;;;;;5027804;28;20861;-72
2022/03/01 06:10:51;;;;;;;2.03;1.93;;;3.80;85.80;;;;;;5027631;28;20538;-72
2022/03/01 06:13:18;;;;;;;1.60;1.40;;;3.80;85.60;;;;;;5025247;28;20821;-71
2022/03/01 06:15:45;;;;;;;1.60;1.50;;;3.80;85.70;;;;;;5026111;28;20486;-71
2022/03/01 06:18:11;;;;;;;1.67;1.57;;;3.80;85.60;;;;;;5016026;28;20487;-71
2022/03/01 06:20:40;;;;;;;1.57;1.40;;;3.80;85.60;;;;;;5025903;28;20487;-74
2022/03/01 06:23:07;;;;;;;1.60;1.40;;;3.90;85.60;;;;;;5028513;28;20463;-75
2022/03/01 06:25:33;;;;;;;1.60;1.40;;;3.80;85.60;;;;;;5022619;28;20487;-71
2022/03/01 06:28:00;;;;;;;1.50;1.40;;;3.80;85.60;;;;;;5027318;28;20485;-72
2022/03/01 06:30:27;;;;;;;1.60;1.50;;;3.80;85.50;;;;;;5027073;28;20455;-71
2022/03/01 06:32:54;;;;;;;1.50;1.40;;;3.80;85.60;;;;;;5027691;28;20463;-73
2022/03/01 06:35:21;;;;;;;1.60;1.40;;;3.80;85.40;;;;;;5025137;28;20506;-72
2022/03/01 06:37:49;;;;;;;1.57;1.30;;;3.80;85.50;;;;;;5026476;28;20470;-72
2022/03/01 06:40:16;;;;;;;3.97;3.67;;;3.80;85.30;;;;;;5026314;28;21244;-74
2022/03/01 06:42:43;;;;;;;1.57;1.40;;;3.80;85.30;;;;;;5027222;28;20842;-75
2022/03/01 06:45:11;;;;;;;1.60;1.50;;;3.80;85.20;;;;;;5026506;28;20494;-73
2022/03/01 06:47:38;;;;;;;1.53;1.40;;;3.90;85.30;;;;;;5015289;28;20487;-72
2022/03/01 06:50:06;;;;;;;1.67;1.57;;;3.90;85.30;;;;;;5025905;28;20475;-74
2022/03/01 06:52:34;;;;;;;1.63;1.53;;;3.90;85.40;;;;;;5027596;28;20459;-72
2022/03/01 06:55:04;;;;;;;1.60;1.40;;;3.90;85.00;;;;;;5026648;28;20576;-74
2022/03/01 06:57:31;;;;;;;1.50;1.30;;;4.00;85.20;;;;;;5024087;28;20463;-72
2022/03/01 06:59:58;;;;;;;1.60;1.43;;;4.00;84.70;;;;;;5025541;28;20466;-72
2022/03/01 07:02:26;;;;;;;1.60;1.50;;;4.10;84.70;;;;;;5025534;28;20502;-71
2022/03/01 07:04:53;;;;;;;1.60;1.50;;;4.10;84.50;;;;;;5015854;28;20575;-72
2022/03/01 07:07:20;;;;;;;1.60;1.40;;;4.10;84.40;;;;;;5021419;28;20463;-73
2022/03/01 07:09:47;;;;;;;1.57;1.40;;;4.10;84.30;;;;;;5021745;28;20459;-71
2022/03/01 07:12:15;;;;;;;1.60;1.50;;;4.10;84.40;;;;;;5023809;28;20459;-72
2022/03/01 07:14:42;;;;;;;1.60;1.50;;;4.00;84.40;;;;;;5023208;28;20478;-72
2022/03/01 07:17:09;;;;;;;1.53;1.40;;;4.00;84.70;;;;;;5012267;28;20483;-71
2022/03/01 07:19:35;;;;;;;3.67;2.77;;;4.00;84.60;;;;;;5022856;28;20473;-72
2022/03/01 07:22:02;;;;;;;1.50;1.40;;;4.00;84.70;;;;;;5023169;28;20773;-71
2022/03/01 07:24:29;;;;;;;2.53;2.33;;;4.00;84.80;;;;;;5023930;28;20497;-71
2022/03/01 07:26:56;;;;;;;1.53;1.40;;;4.00;84.80;;;;;;5023646;28;20551;-71
2022/03/01 07:29:24;;;;;;;1.60;1.50;;;4.00;84.40;;;;;;5023814;28;20999;-71
2022/03/01 07:31:50;;;;;;;1.57;1.40;;;4.00;84.30;;;;;;5024178;28;20486;-70
2022/03/01 07:34:17;;;;;;;2.37;2.17;;;4.00;84.30;;;;;;5022028;28;20482;-71
2022/03/01 07:36:44;;;;;;;1.80;1.70;;;4.00;84.50;;;;;;5022794;28;20483;-71
2022/03/01 07:39:11;;;;;;;1.67;1.57;;;4.00;84.10;;;;;;5023994;28;20463;-69
2022/03/01 07:41:38;;;;;;;1.53;1.40;;;4.00;84.00;;;;;;5021130;28;21038;-72
2022/03/01 07:44:05;;;;;;;2.03;1.93;;;4.10;84.10;;;;;;5023043;28;20899;-72
2022/03/01 07:46:33;;;;;;;1.60;1.40;;;4.10;83.80;;;;;;5022366;28;20523;-72
2022/03/01 07:49:00;;;;;;;1.60;1.40;;;4.10;83.80;;;;;;5023128;28;20470;-72
2022/03/01 07:51:27;;;;;;;1.57;1.40;;;4.20;83.80;;;;;;5023040;28;20459;-72
2022/03/01 07:53:54;;;;;;;1.57;1.40;;;4.30;83.70;;;;;;5023245;28;20470;-72
2022/03/01 07:56:21;;;;;;;1.70;1.60;;;4.30;83.70;;;;;;5023359;28;20539;-71
2022/03/01 07:58:49;;;;;;;1.57;1.37;;;4.40;83.50;;;;;;5022391;28;20554;-72
2022/03/01 08:01:17;;;;;;;2.23;2.03;;;4.50;83.00;;;;;;5021111;28;20863;-72
2022/03/01 08:03:45;;;;;;;1.57;1.40;;;4.50;83.00;;;;;;5022411;28;20471;-72
2022/03/01 08:06:12;;;;;;;1.67;1.57;;;4.60;83.00;;;;;;5019844;28;20617;-72
2022/03/01 08:08:39;;;;;;;2.27;2.07;;;4.70;82.70;;;;;;5022544;28;20463;-72
2022/03/01 08:11:05;;;;;;;1.60;1.40;;;4.70;82.40;;;;;;5020513;28;20459;-72
2022/03/01 08:13:33;;;;;;;1.57;1.30;;;4.80;82.40;;;;;;5022772;28;20923;-72
2022/03/01 08:16:00;;;;;;;1.50;1.27;;;4.90;82.50;;;;;;5011870;28;20494;-72
2022/03/01 08:18:26;;;;;;;1.53;1.30;;;5.00;82.20;;;;;;5022488;28;20470;-72
2022/03/01 08:20:55;;;;;;;1.60;1.40;;;5.10;81.80;;;;;;5023840;28;20463;-72
2022/03/01 08:23:21;;;;;;;1.57;1.40;;;5.20;81.80;;;;;;5025687;28;20486;-72
2022/03/01 08:25:48;;;;;;;1.50;1.30;;;5.20;81.50;;;;;;5026905;28;20486;-72
2022/03/01 08:28:15;;;;;;;1.60;1.30;;;5.30;81.30;;;;;;5026001;28;20467;-72
2022/03/01 08:30:42;;;;;;;1.57;1.40;;;5.40;81.60;;;;;;5023371;28;20463;-72
2022/03/01 08:33:09;;;;;;;1.60;1.40;;;5.50;81.20;;;;;;5023410;28;20904;-72
2022/03/01 08:35:36;;;;;;;1.60;1.47;;;5.50;81.10;;;;;;5025592;28;20490;-72
2022/03/01 08:38:06;;;;;;;1.60;1.50;;;5.60;80.40;;;;;;5024720;28;20463;-72
2022/03/01 08:40:37;;;;;;;1.60;1.40;;;5.60;80.50;;;;;;5024426;28;20470;-72
2022/03/01 08:43:05;;;;;;;1.50;1.30;;;5.70;80.30;;;;;;5024890;28;20581;-72
2022/03/01 08:45:32;;;;;;;1.57;1.30;;;5.90;80.20;;;;;;5024170;28;20494;-72
2022/03/01 08:47:59;;;;;;;1.60;1.30;;;6.10;79.90;;;;;;5024695;28;20463;-70
2022/03/01 08:50:26;;;;;;;1.57;1.30;;;6.30;79.10;;;;;;5024286;28;20498;-72
2022/03/01 08:52:53;;;;;;;1.57;1.30;;;6.30;78.40;;;;;;5024902;28;20471;-72
2022/03/01 08:55:21;;;;;;;1.50;1.30;;;6.30;78.50;;;;;;5024510;28;20512;-72
2022/03/01 08:57:48;;;;;;;2.87;2.67;;;6.30;78.70;;;;;;5024477;28;20610;-72
2022/03/01 09:00:16;;;;;;;1.60;1.30;;;6.40;78.70;;;;;;5025363;28;20471;-71
2022/03/01 09:02:44;;;;;;;1.50;1.30;;;6.60;78.80;;;;;;5013259;28;20522;-72
2022/03/01 09:05:10;;;;;;;1.60;1.47;;;6.70;78.50;;;;;;5025521;28;20483;-72
2022/03/01 09:07:38;;;;;;;1.50;1.23;;;6.80;78.10;;;;;;5026284;28;21289;-72
2022/03/01 09:10:07;;;;;;;1.50;1.27;;;6.90;77.20;;;;;;5023822;28;20467;-72
2022/03/01 09:12:35;;;;;;;1.53;1.30;;;6.90;76.50;;;;;;5023583;28;21250;-72
2022/03/01 09:15:02;;;;;;;1.50;1.30;;;7.00;77.20;;;;;;5025907;28;20494;-73
2022/03/01 09:17:28;;;;;;;1.50;1.33;;;7.00;76.40;;;;;;5025157;28;20474;-71
2022/03/01 09:19:55;;;;;;;1.87;1.67;;;7.10;76.80;;;;;;5024449;28;20467;-71
2022/03/01 09:22:22;;;;;;;1.53;1.27;;;7.20;76.70;;;;;;5016221;28;20487;-71
2022/03/01 09:24:49;;;;;;;3.13;2.80;;;7.20;76.00;;;;;;5025432;28;20545;-72
2022/03/01 09:27:16;;;;;;;1.50;1.27;;;7.30;75.50;;;;;;5026221;28;20470;-72
2022/03/01 09:29:44;;;;;;;1.60;1.30;;;7.20;75.60;;;;;;5023792;28;20960;-71
2022/03/01 09:32:11;;;;;;;2.30;2.10;;;7.20;74.90;;;;;;5014638;28;20974;-73
2022/03/01 09:34:38;;;;;;;1.50;1.23;;;7.10;76.10;;;;;;5024399;28;20474;-73
2022/03/01 09:37:05;;;;;;;1.50;1.20;;;7.20;76.30;;;;;;5024896;28;20468;-72
2022/03/01 09:39:32;;;;;;;7.83;1.93;;;7.10;75.80;;;;;;5022459;28;20463;-71
2022/03/01 09:42:00;;;;;;;1.50;1.10;;;7.10;76.30;;;;;;5018040;28;20483;-70
2022/03/01 09:44:27;;;;;;;1.50;1.30;;;7.10;76.70;;;;;;5027574;28;20529;-71
2022/03/01 09:46:56;;;;;;;1.60;1.47;;;7.10;75.90;;;;;;5013762;28;20483;-72
2022/03/01 09:49:23;;;;;;;2.73;2.53;;;7.10;75.60;;;;;;5021523;28;20467;-71
2022/03/01 09:51:51;;;;;;;1.53;1.33;;;7.10;75.60;;;;;;5024621;28;20547;-71
2022/03/01 09:54:18;;;;;;;1.50;1.30;;;7.20;75.30;;;;;;5023448;28;20494;-71
2022/03/01 09:56:46;;;;;;;1.50;1.30;;;7.40;75.70;;;;;;5024853;28;21026;-69
2022/03/01 09:59:13;;;;;;;2.70;2.50;;;7.70;75.70;;;;;;5024496;28;21384;-69
2022/03/01 10:01:48;;;;;;;1.50;1.33;;;8.20;74.80;;;;;;5023399;28;20876;-69
2022/03/01 10:04:17;;;;;;;3.97;3.63;;;8.50;73.60;;;;;;5023715;28;20479;-69
2022/03/01 10:06:46;;;;;;;1.50;1.20;;;8.80;71.80;;;;;;5023728;28;20495;-69
2022/03/01 10:09:16;;;;;;;1.50;1.30;;;9.00;71.80;;;;;;5038216;22;20502;-73
2022/03/01 10:11:43;;;;;;;1.50;1.20;;;9.20;71.70;;;;;;5023069;28;20459;-74
2022/03/01 10:14:11;;;;;;;1.50;1.20;;;9.20;70.40;;;;;;5023109;28;20459;-75
2022/03/01 10:16:40;;;;;;;1.50;1.30;;;9.20;70.70;;;;;;5022869;28;20471;-75
2022/03/01 10:19:13;;;;;;;1.50;1.10;;;9.40;71.20;;;;;;5019533;28;20879;-73
2022/03/01 10:21:41;;;;;;;1.77;1.50;;;9.50;69.80;;;;;;5022516;28;20577;-75
2022/03/01 10:24:08;;;;;;;1.50;1.23;;;9.50;70.20;;;;;;5024840;28;20615;-74
2022/03/01 10:26:37;;;;;;;1.80;1.70;;;9.50;70.20;;;;;;5024609;28;20463;-73
2022/03/01 10:29:06;;;;;;;1.50;1.10;;;9.70;71.10;;;;;;5021421;28;21062;-75
2022/03/01 10:31:35;;;;;;;2.80;2.60;;;9.90;69.90;;;;;;5023160;28;20524;-74
2022/03/01 10:34:03;;;;;;;1.50;1.10;;;9.90;68.70;;;;;;5023893;28;20471;-76
2022/03/01 10:36:31;;;;;;;1.50;1.20;;;10.00;69.30;;;;;;5012971;28;20489;-75
2022/03/01 10:39:02;;;;;;;1.50;1.20;;;10.00;69.00;;;;;;5022857;28;20594;-74
2022/03/01 10:41:31;;;;;;;1.50;1.20;;;9.90;68.60;;;;;;5022096;28;20554;-77
2022/03/01 10:43:59;;;;;;;1.83;1.60;;;9.80;69.10;;;;;;5022129;28;20882;-75
2022/03/01 10:46:26;;;;;;;2.17;1.97;;;9.80;68.70;;;;;;5021805;28;20463;-75
2022/03/01 10:49:07;;;;;;;1.50;1.10;;;9.80;68.40;;;;;;5022767;28;20630;-74
2022/03/01 10:51:34;;;;;;;1.50;1.30;;;9.70;67.40;;;;;;5006868;28;20665;-75
2022/03/01 10:54:02;;;;;;;1.50;1.30;;;9.70;67.20;;;;;;5022048;28;20840;-74
2022/03/01 10:56:37;;;;;;;1.50;1.10;;;9.70;67.20;;;;;;5023636;28;20470;-75
2022/03/01 10:59:05;;;;;;;3.83;3.53;;;9.70;66.80;;;;;;5022557;28;20483;-76
2022/03/01 11:01:32;;;;;;;1.50;1.20;;;9.60;66.80;;;;;;5017152;28;20474;-77
2022/03/01 11:03:59;;;;;;;1.50;1.03;;;9.60;66.70;;;;;;5022031;28;20487;-74
2022/03/01 11:06:27;;;;;;;1.50;1.10;;;9.60;65.60;;;;;;5023098;28;20463;-75
2022/03/01 11:08:54;;;;;;;1.50;1.20;;;9.60;66.90;;;;;;5021990;28;20785;-74
2022/03/01 11:11:26;;;;;;;1.50;1.20;;;9.60;65.40;;;;;;5020918;28;20555;-75
2022/03/01 11:13:53;;;;;;;2.40;2.20;;;9.50;65.20;;;;;;5023531;28;20491;-76
2022/03/01 11:16:40;;;;;;;1.93;1.83;;;9.50;65.40;;;;;;5022955;28;20472;-75
2022/03/01 11:19:36;;;;;;;1.80;1.70;;;9.60;65.80;;;;;;5020987;28;20485;-75
2022/03/01 11:22:03;;;;;;;4.37;1.30;;;9.60;65.80;;;;;;5021477;28;20733;-75
2022/03/01 11:24:30;;;;;;;1.50;1.20;;;9.70;67.20;;;;;;5023528;28;20498;-74
2022/03/01 11:27:07;;;;;;;2.20;2.07;;;9.70;65.40;;;;;;5022625;28;20471;-75
2022/03/01 11:29:38;;;;;;;1.50;1.10;;;9.70;64.50;;;;;;5021498;28;21055;-75
2022/03/01 11:32:12;;;;;;;1.63;1.40;;;9.60;64.70;;;;;;5021982;28;20486;-74
2022/03/01 11:34:40;;;;;;;3.20;2.70;;;9.60;65.60;;;;;;5020743;28;20469;-75
2022/03/01 11:37:14;;;;;;;1.50;1.10;;;9.70;66.60;;;;;;5022302;28;20458;-75
2022/03/01 11:39:42;;;;;;;1.50;1.10;;;9.80;66.90;;;;;;5020531;28;20475;-76
2022/03/01 11:42:14;;;;;;;1.47;1.03;;;9.90;66.30;;;;;;5020853;28;20471;-77
2022/03/01 11:44:45;;;;;;;1.50;1.20;;;10.10;67.30;;;;;;5022716;28;20580;-74
2022/03/01 11:47:24;;;;;;;1.50;1.20;;;10.20;67.00;;;;;;5021973;28;20467;-76
2022/03/01 11:49:51;;;;;;;1.50;1.10;;;10.20;66.40;;;;;;5021398;28;20497;-76
2022/03/01 11:52:20;;;;;;;1.50;1.10;;;10.20;66.80;;;;;;5012943;28;20999;-75
2022/03/01 11:54:48;;;;;;;1.50;1.10;;;10.20;66.10;;;;;;5024660;28;20462;-75
2022/03/01 11:57:24;;;;;;;1.50;1.10;;;10.10;66.50;;;;;;5026276;28;20463;-75
2022/03/01 11:59:50;;;;;;;1.50;1.20;;;10.10;67.40;;;;;;5024388;28;20467;-75
2022/03/01 12:02:19;;;;;;;1.50;1.10;;;10.10;66.70;;;;;;5020996;28;20474;-74
2022/03/01 12:04:47;;;;;;;1.50;1.20;;;10.10;66.40;;;;;;5022153;28;20548;-73
2022/03/01 12:07:18;;;;;;;1.50;1.07;;;10.00;65.50;;;;;;5026008;28;20459;-77
2022/03/01 12:09:59;;;;;;;1.47;1.10;;;10.00;66.40;;;;;;5024138;28;20490;-76
2022/03/01 12:12:38;;;;;;;1.50;1.10;;;10.20;66.80;;;;;;5025275;28;20458;-74
2022/03/01 12:15:08;;;;;;;1.50;1.23;;;10.30;65.70;;;;;;5024499;28;20483;-74
2022/03/01 12:17:43;;;;;;;1.50;1.10;;;10.30;64.60;;;;;;5026037;28;20908;-75
2022/03/01 12:20:13;;;;;;;4.03;3.73;;;10.20;64.80;;;;;;5024474;28;20486;-75
2022/03/01 12:22:53;;;;;;;1.73;1.63;;;10.20;64.40;;;;;;5022450;28;21019;-74
2022/03/01 12:25:20;;;;;;;1.50;1.00;;;10.20;64.80;;;;;;5025960;28;20474;-75
2022/03/01 12:27:49;;;;;;;1.50;1.10;;;10.30;65.20;;;;;;5024522;28;20993;-75
2022/03/01 12:30:20;;;;;;;1.43;1.00;;;10.30;64.80;;;;;;5020367;28;20852;-76
2022/03/01 12:32:52;;;;;;;1.50;1.30;;;10.30;64.40;;;;;;5024712;28;20538;-75
2022/03/01 12:35:19;;;;;;;1.50;1.10;;;10.30;64.40;;;;;;5023028;28;21006;-76
2022/03/01 12:37:46;;;;;;;1.50;1.20;;;10.30;64.40;;;;;;5024637;28;20517;-75
2022/03/01 12:40:14;;;;;;;1.50;1.10;;;10.20;64.70;;;;;;5016724;28;20475;-75
2022/03/01 12:42:41;;;;;;;6.40;3.50;;;10.20;63.90;;;;;;5020537;28;20517;-76
2022/03/01 12:45:10;;;;;;;1.63;1.53;;;10.20;63.80;;;;;;5021788;28;20482;-75
2022/03/01 12:47:40;;;;;;;1.50;1.10;;;10.30;64.20;;;;;;5020057;28;20976;-74
2022/03/01 12:50:18;;;;;;;1.50;1.10;;;10.40;65.00;;;;;;5019956;28;20508;-75
2022/03/01 12:52:54;;;;;;;1.50;1.10;;;10.50;64.70;;;;;;5022729;28;20971;-75
2022/03/01 12:55:22;;;;;;;1.77;1.50;;;10.60;63.70;;;;;;5022302;28;20474;-75
2022/03/01 12:57:49;;;;;;;1.50;1.23;;;10.70;64.50;;;;;;5022962;28;20494;-75
2022/03/01 13:00:19;;;;;;;1.50;1.10;;;10.80;63.50;;;;;;5023171;28;20502;-78